createdAt,value
2022-10-03T00:00:38.753Z,54.50
2022-10-03T00:05:54.941Z,54.40
2022-10-03T00:11:10.520Z,54.30
2022-10-03T00:16:25.574Z,54.30
2022-10-03T00:21:40.925Z,54.20
2022-10-03T00:26:56.848Z,54.30
2022-10-03T00:32:12.493Z,54.30
2022-10-03T00:37:27.817Z,54.30
2022-10-03T00:42:43.577Z,54.30
2022-10-03T00:47:59.562Z,54.10
2022-10-03T00:53:14.466Z,54.00
2022-10-03T00:58:29.831Z,53.90
2022-10-03T01:03:45.493Z,53.90
2022-10-03T01:09:00.504Z,53.80
2022-10-03T01:14:15.489Z,54.30
2022-10-03T01:19:30.526Z,54.20
2022-10-03T01:24:45.788Z,53.90
2022-10-03T01:30:01.508Z,54.30
2022-10-03T01:35:16.554Z,53.60
2022-10-03T01:40:31.788Z,53.70
2022-10-03T01:45:47.463Z,53.80
2022-10-03T01:51:02.474Z,53.60
2022-10-03T01:56:18.052Z,53.60
2022-10-03T02:01:33.541Z,53.60
2022-10-03T02:06:48.493Z,53.50
2022-10-03T02:12:03.534Z,53.50
2022-10-03T02:17:18.783Z,53.60
2022-10-03T02:22:34.475Z,53.50
2022-10-03T02:27:49.583Z,53.40
2022-10-03T02:33:04.558Z,53.30
2022-10-03T02:38:19.472Z,53.30
2022-10-03T02:43:34.513Z,53.20
2022-10-03T02:48:49.489Z,53.50
2022-10-03T02:54:04.495Z,53.40
2022-10-03T02:59:19.539Z,53.20
2022-10-03T03:04:34.747Z,53.20
2022-10-03T03:09:50.517Z,53.10
2022-10-03T03:15:05.586Z,53.10
2022-10-03T03:20:20.533Z,53.00
2022-10-03T03:25:35.488Z,53.20
2022-10-03T03:30:51.814Z,54.60
2022-10-03T03:36:07.510Z,54.30
2022-10-03T03:41:22.563Z,54.00
2022-10-03T03:46:37.498Z,53.10
2022-10-03T03:51:52.784Z,52.40
2022-10-03T03:57:08.979Z,51.60
2022-10-03T04:02:24.545Z,51.10
2022-10-03T04:07:40.569Z,50.80
2022-10-03T04:12:55.522Z,50.30
2022-10-03T04:18:10.919Z,49.90
2022-10-03T04:23:26.488Z,49.60
2022-10-03T04:28:41.913Z,49.50
2022-10-03T04:33:57.912Z,49.40
2022-10-03T04:39:13.873Z,49.00
2022-10-03T04:44:29.856Z,48.90
2022-10-03T04:49:45.520Z,48.60
2022-10-03T04:55:00.515Z,48.70
2022-10-03T05:00:15.807Z,48.30
2022-10-03T05:05:31.503Z,48.10
2022-10-03T05:10:46.491Z,47.90
2022-10-03T05:16:01.504Z,47.70
2022-10-03T05:21:16.487Z,47.70
2022-10-03T05:26:46.827Z,47.80
2022-10-03T05:32:02.559Z,47.50
2022-10-03T05:37:17.513Z,47.50
2022-10-03T05:42:32.575Z,47.50
2022-10-03T05:47:47.775Z,47.40
2022-10-03T05:53:03.509Z,47.50
2022-10-03T05:58:18.570Z,47.30
2022-10-03T06:03:33.542Z,47.10
2022-10-03T06:08:48.586Z,47.20
2022-10-03T06:14:04.548Z,47.10
2022-10-03T06:19:20.184Z,47.10
2022-10-03T06:24:35.521Z,47.10
2022-10-03T06:29:50.853Z,47.10
2022-10-03T06:35:06.615Z,47.10
2022-10-03T06:40:21.929Z,47.10
2022-10-03T06:45:37.496Z,47.20
2022-10-03T06:50:52.987Z,47.20
2022-10-03T06:56:08.829Z,47.30
2022-10-03T07:01:24.994Z,47.50
2022-10-03T07:06:40.834Z,47.50
2022-10-03T07:11:56.508Z,47.50
2022-10-03T07:17:11.639Z,47.70
2022-10-03T07:22:26.362Z,47.80
2022-10-03T07:27:41.557Z,48.00
2022-10-03T07:32:56.572Z,48.50
2022-10-03T07:38:11.517Z,48.50
2022-10-03T07:43:26.509Z,48.70
2022-10-03T07:48:41.553Z,48.80
2022-10-03T07:53:56.517Z,49.00
2022-10-03T07:59:11.914Z,49.30
2022-10-03T08:04:27.614Z,49.40
2022-10-03T08:09:42.558Z,49.50
2022-10-03T08:14:57.580Z,49.50
2022-10-03T08:20:12.824Z,49.60
2022-10-03T08:25:28.525Z,49.80
2022-10-03T08:30:43.542Z,49.70
2022-10-03T08:35:58.521Z,49.60
2022-10-03T08:41:13.530Z,49.80
2022-10-03T08:46:28.672Z,50.10
2022-10-03T08:51:43.535Z,50.50
2022-10-03T08:56:58.523Z,51.10
2022-10-03T09:02:13.924Z,50.60
2022-10-03T09:07:30.476Z,50.50
2022-10-03T09:12:45.533Z,50.50
2022-10-03T09:18:00.674Z,50.50
2022-10-03T09:23:15.529Z,50.70
2022-10-03T09:28:30.533Z,50.70
2022-10-03T09:33:45.594Z,50.90
2022-10-03T09:39:00.536Z,51.20
2022-10-03T09:44:15.596Z,51.10
2022-10-03T09:49:31.032Z,51.20
2022-10-03T09:54:46.546Z,51.30
2022-10-03T10:00:01.562Z,51.70
2022-10-03T10:05:20.520Z,51.80
2022-10-03T10:10:35.521Z,51.70
2022-10-03T10:15:50.609Z,51.90
2022-10-03T10:21:05.524Z,52.50
2022-10-03T10:26:20.552Z,52.00
2022-10-03T10:31:35.617Z,52.00
2022-10-03T10:36:50.581Z,52.30
2022-10-03T10:42:05.887Z,52.20
2022-10-03T10:47:21.515Z,52.70
2022-10-03T10:52:36.538Z,53.10
2022-10-03T10:57:51.550Z,53.20
2022-10-03T11:03:06.528Z,53.20
2022-10-03T11:08:21.646Z,53.10
2022-10-03T11:13:36.935Z,53.10
2022-10-03T11:18:52.533Z,53.80
2022-10-03T11:24:07.828Z,53.10
2022-10-03T11:29:23.572Z,52.80
2022-10-03T11:34:38.580Z,52.70
2022-10-03T11:39:53.629Z,52.60
2022-10-03T11:45:08.520Z,52.50
2022-10-03T11:50:23.370Z,51.90
2022-10-03T11:55:38.886Z,52.20
2022-10-03T12:00:54.551Z,52.30
2022-10-03T12:06:09.563Z,52.00
2022-10-03T12:11:24.829Z,51.80
2022-10-03T12:16:40.581Z,51.20
2022-10-03T12:21:55.583Z,50.60
2022-10-03T12:27:10.567Z,50.40
2022-10-03T12:32:25.366Z,50.40
2022-10-03T12:37:40.554Z,50.70
2022-10-03T12:42:55.827Z,50.90
2022-10-03T12:48:11.546Z,50.70
2022-10-03T12:53:26.817Z,50.70
2022-10-03T12:58:42.575Z,50.50
2022-10-03T13:03:57.872Z,50.60
2022-10-03T13:09:14.565Z,50.70
2022-10-03T13:14:29.544Z,51.10
2022-10-03T13:19:44.528Z,51.20
2022-10-03T13:25:00.577Z,51.10
2022-10-03T13:30:15.613Z,51.20
2022-10-03T13:35:30.959Z,51.40
2022-10-03T13:40:46.334Z,51.10
2022-10-03T13:46:02.473Z,51.00
2022-10-03T13:51:17.338Z,51.00
2022-10-03T13:56:32.555Z,50.80
2022-10-03T14:01:47.576Z,51.00
2022-10-03T14:07:02.291Z,51.20
2022-10-03T14:12:24.814Z,51.20
2022-10-03T14:17:52.582Z,51.40
2022-10-03T14:23:07.597Z,51.50
2022-10-03T14:28:22.753Z,51.50
2022-10-03T14:33:37.570Z,51.50
2022-10-03T14:38:52.864Z,51.60
2022-10-03T14:44:13.381Z,51.70
2022-10-03T14:55:03.560Z,51.60
2022-10-03T15:00:18.852Z,51.60
2022-10-03T15:05:34.892Z,51.80
2022-10-03T15:10:50.547Z,52.00
2022-10-03T15:16:05.445Z,52.10
2022-10-03T15:21:20.613Z,52.20
2022-10-03T15:26:35.634Z,52.10
2022-10-03T15:31:50.607Z,52.00
2022-10-03T15:37:05.589Z,52.10
2022-10-03T15:42:20.607Z,51.90
2022-10-03T15:47:35.360Z,52.00
2022-10-03T15:52:50.964Z,51.90
2022-10-03T15:58:06.540Z,51.70
2022-10-03T16:03:21.346Z,51.50
2022-10-03T16:08:36.597Z,51.50
2022-10-03T16:13:51.570Z,51.40
2022-10-03T16:19:06.550Z,51.60
2022-10-03T16:24:21.676Z,51.50
2022-10-03T16:29:36.593Z,51.50
2022-10-03T16:34:51.549Z,51.40
2022-10-03T16:40:06.342Z,51.30
2022-10-03T16:45:21.592Z,51.30
2022-10-03T16:50:38.856Z,51.20
2022-10-03T16:55:59.903Z,51.20
2022-10-03T17:01:27.016Z,51.10
2022-10-03T17:06:42.886Z,51.20
2022-10-03T17:11:58.608Z,51.10
2022-10-03T17:17:13.870Z,51.20
2022-10-03T17:22:29.882Z,51.20
2022-10-03T17:27:45.922Z,51.20
2022-10-03T17:33:01.649Z,51.30
2022-10-03T17:38:44.504Z,51.30
2022-10-03T17:44:29.922Z,51.40
2022-10-03T17:49:45.606Z,51.50
2022-10-03T17:55:00.624Z,51.60
2022-10-03T18:00:15.559Z,51.60
2022-10-03T18:05:30.635Z,51.60
2022-10-03T18:10:45.368Z,51.70
2022-10-03T18:16:00.615Z,51.70
2022-10-03T18:21:15.546Z,51.70
2022-10-03T18:26:30.874Z,51.70
2022-10-03T18:31:46.710Z,51.70
2022-10-03T18:37:01.618Z,51.70
2022-10-03T18:42:16.334Z,51.80
2022-10-03T18:47:31.576Z,51.70
2022-10-03T18:52:46.571Z,51.80
2022-10-03T18:58:01.569Z,51.80
2022-10-03T19:03:16.607Z,51.80
2022-10-03T19:08:31.548Z,52.00
2022-10-03T19:13:49.463Z,52.00
2022-10-03T19:19:08.882Z,51.80
2022-10-03T19:24:46.146Z,51.80
2022-10-03T19:29:59.337Z,54.30
2022-10-03T19:35:14.879Z,55.30
2022-10-03T19:40:30.933Z,55.50
2022-10-03T19:45:46.599Z,55.50
2022-10-03T19:51:01.568Z,55.50
2022-10-03T19:56:16.981Z,55.40
2022-10-03T20:01:32.600Z,56.00
2022-10-03T20:06:47.619Z,55.70
2022-10-03T20:12:02.577Z,55.50
2022-10-03T20:17:17.573Z,55.20
2022-10-03T20:22:32.336Z,55.20
2022-10-03T20:27:47.565Z,55.10
2022-10-03T20:33:02.586Z,54.90
2022-10-03T20:38:17.857Z,54.80
2022-10-03T20:43:35.668Z,54.70
2022-10-03T20:48:54.618Z,54.70
2022-10-03T20:54:09.660Z,54.70
2022-10-03T20:59:24.863Z,54.70
2022-10-03T21:04:40.566Z,54.60
2022-10-03T21:09:55.565Z,54.50
2022-10-03T21:15:10.541Z,54.40
2022-10-03T21:20:25.588Z,55.10
2022-10-03T21:25:42.181Z,54.50
2022-10-03T21:30:59.611Z,54.50
2022-10-03T21:36:14.568Z,54.50
2022-10-03T21:41:29.618Z,54.60
2022-10-03T21:46:44.620Z,54.60
2022-10-03T21:51:59.651Z,54.10
2022-10-03T21:57:14.591Z,53.90
2022-10-03T22:02:30.034Z,53.90
2022-10-03T22:07:45.600Z,53.80
2022-10-03T22:13:00.927Z,53.90
2022-10-03T22:18:16.417Z,53.80
2022-10-03T22:23:31.848Z,54.30
2022-10-03T22:28:47.917Z,54.30
2022-10-03T22:34:03.614Z,54.20
2022-10-03T22:39:18.597Z,54.30
2022-10-03T22:44:33.575Z,54.30
2022-10-03T22:49:49.889Z,54.20
2022-10-03T22:55:06.028Z,54.20
2022-10-03T23:00:21.581Z,54.20
2022-10-03T23:05:36.812Z,54.40
2022-10-03T23:10:52.582Z,54.40
2022-10-03T23:16:07.638Z,54.30
2022-10-03T23:21:23.610Z,54.20
2022-10-03T23:26:38.791Z,54.40
2022-10-03T23:31:54.915Z,54.60
2022-10-03T23:37:10.947Z,54.70
2022-10-03T23:42:26.594Z,54.50
2022-10-03T23:47:41.887Z,54.40
2022-10-03T23:52:57.571Z,54.20
2022-10-03T23:58:12.613Z,54.10
